CW8212 Weather Reports


Display with metric or nautical units.
time (UTC)temp
F
wind
direction
speed
MPH
gust
MPH
rain 1hr
in
rain 24hr
in
rain mn
in
humidity
%
barometer
mb
20220707154532 74 204 0.0 3.0 0.00 0.31 0.31 90 1014.0
20220707153029 73 232 0.0 2.0 0.00 0.31 0.31 94 1014.0
20220707151528 74 229 0.0 2.0 0.00 0.31 0.31 95 1013.9
20220707150033 72 227 0.0 2.0 0.00 0.31 0.31 95 1014.0
20220707144526 71 248 0.0 2.0 0.00 0.31 0.31 95 1013.9
20220707143025 71 198 0.0 3.0 0.00 0.31 0.31 96 1014.0
20220707141525 70 270 0.0 3.0 0.00 0.31 0.31 97 1014.0
20220707140024 70 316 0.0 3.0 0.00 0.31 0.31 97 1014.0
20220707134522 70 253 0.0 2.0 0.00 0.31 0.31 97 1014.0
20220707133031 69 257 0.0 2.0 0.00 0.31 0.31 98 1013.9
20220707131519 69 285 0.0 1.0 0.00 0.31 0.31 98 1014.0
20220707130017 69 279 0.0 1.0 0.00 0.31 0.31 98 1014.1
20220707124519 69 250 0.0 1.0 0.00 0.31 0.31 98 1014.1
20220707123017 69 223 0.0 2.0 0.00 0.31 0.31 98 1014.0
20220707121514 69 210 0.0 1.0 0.00 0.31 0.31 97 1013.8
20220707120012 68 191 0.0 1.0 0.00 0.31 0.31 97 1013.9
20220707114515 68 190 0.0 1.0 0.01 0.31 0.31 97 1013.7
20220707113011 68 191 0.0 1.0 0.05 0.31 0.31 97 1013.7
20220707111506 68 193 0.0 0.0 0.10 0.31 0.31 97 1013.7
20220707110005 68 193 0.0 1.0 0.12 0.31 0.31 97 1013.8
20220707104509 68 193 0.0 2.0 0.15 0.30 0.30 97 1013.7
20220707103005 68 205 0.0 2.0 0.16 0.26 0.26 97 1013.7
20220707101600 68 163 1.0 2.0 0.12 0.21 0.21 97 1013.6
20220707100102 68 223 0.0 2.0 0.10 0.19 0.19 96 1013.3
20220707094558 68 200 0.0 2.0 0.08 0.15 0.15 96 1013.3
20220707093055 68 112 0.0 2.0 0.06 0.10 0.10 96 1013.1
20220707091553 69 136 0.0 2.0 0.06 0.09 0.09 96 1013.1
20220707090052 69 206 0.0 1.0 0.07 0.09 0.09 96 1012.8
20220707084556 69 206 0.0 1.0 0.06 0.07 0.07 95 1012.7
20220707083047 69 206 0.0 1.0 0.04 0.04 0.04 95 1012.5
20220707081545 69 206 0.0 1.0 0.03 0.03 0.03 94 1012.4
20220707080043 69 206 0.0 0.0 0.02 0.02 0.02 91 1012.2
20220707074540 71 206 0.0 1.0 0.01 0.01 0.01 88 1012.2
20220707073039 71 208 0.0 1.0 0.00 0.00 0.00 87 1012.2
20220707071542 72 208 0.0 0.0 0.00 0.00 0.00 84 1012.1
20220707070033 73 208 0.0 1.0 0.00 0.00 0.00 79 1012.1
20220707064534 73 211 0.0 0.0 0.00 0.00 0.00 79 1012.2
20220707063032 73 211 0.0 1.0 0.00 0.00 0.00 79 1012.1
20220707061531 73 211 0.0 1.0 0.00 0.00 0.00 78 1012.0
20220707060035 73 261 0.0 1.0 0.00 0.00 0.00 77 1011.9
20220707054530 74 260 0.0 2.0 0.00 0.00 0.00 77 1012.0
20220707053037 73 244 0.0 2.0 0.00 0.00 0.00 78 1012.2
20220707051526 73 277 0.0 1.0 0.00 0.00 0.00 77 1012.2
20220707050025 74 277 0.0 1.0 0.00 0.00 0.00 77 1012.3
20220707044529 74 277 0.0 1.0 0.00 0.00 0.00 77 1012.3
20220707043023 74 277 0.0 1.0 0.00 0.00 0.00 76 1012.3
20220707041522 74 277 0.0 0.0 0.00 0.00 0.00 75 1012.3
20220707040024 74 277 0.0 0.0 0.00 0.00 0.00 75 1012.3
20220707034520 74 277 0.0 2.0 0.00 0.00 0.00 74 1012.2
20220707033018 75 271 0.0 1.0 0.00 0.00 0.00 74 1012.3
20220707031518 75 290 0.0 3.0 0.00 0.00 0.00 74 1012.2
20220707030018 75 285 0.0 2.0 0.00 0.00 0.00 74 1012.3
20220707024520 75 286 0.0 0.0 0.00 0.00 0.00 73 1012.2
20220707023017 76 286 0.0 1.0 0.00 0.00 0.00 71 1012.3
20220707021517 76 261 0.0 1.0 0.00 0.00 0.00 72 1012.3
20220707020027 76 314 0.0 1.0 0.00 0.00 0.00 72 1012.3
20220707014515 76 315 0.0 1.0 0.00 0.00 0.00 73 1012.3
20220707013015 76 315 0.0 1.0 0.00 0.00 0.00 72 1012.0
20220707011511 76 270 0.0 1.0 0.00 0.00 0.00 71 1011.7
20220707010018 77 270 0.0 1.0 0.00 0.00 0.00 70 1011.7
20220707004514 77 270 0.0 0.0 0.00 0.00 0.00 69 1011.7
20220707003009 77 270 0.0 1.0 0.00 0.00 0.00 71 1011.5
20220707001509 78 270 0.0 1.0 0.00 0.00 0.00 70 1011.4
20220707000006 78 270 0.0 2.0 0.00 0.00 0.00 69 1011.3
20220706234504 79 100 0.0 0.0 0.00 0.00 0.00 71 1011.1
20220706233002 79 100 0.0 1.0 0.00 0.00 0.00 70 1010.9
20220706231501 80 100 0.0 1.0 0.00 0.00 0.00 70 1010.8
20220706230111 80 355 0.0 3.0 0.00 0.00 0.00 68 1010.8
20220706224603 80 282 0.0 2.0 0.00 0.00 0.00 68 1010.6
20220706223103 82 259 1.0 4.0 0.00 0.00 0.00 67 1010.5
20220706221558 82 295 1.0 3.0 0.00 0.00 0.00 69 1010.3
20220706220059 81 215 1.0 2.0 0.00 0.00 0.00 69 1010.1
20220706214557 81 336 0.0 2.0 0.00 0.00 0.00 70 1010.3
20220706213056 81 280 0.0 1.0 0.00 0.00 0.00 73 1010.6
20220706211555 82 232 0.0 3.0 0.00 0.00 0.00 70 1010.5
20220706210103 82 263 0.0 3.0 0.00 0.00 0.00 70 1010.2
20220706204600 82 275 0.0 2.0 0.00 0.00 0.00 73 1010.2
20220706203055 82 275 0.0 3.0 0.00 0.00 0.00 72 1010.5
20220706201624 83 321 0.0 2.0 0.00 0.00 0.00 71 1010.4
20220706200100 83 292 1.0 7.0 0.00 0.00 0.00 70 1010.3
20220706194553 82 319 0.0 3.0 0.00 0.00 0.00 72 1010.4
20220706193052 82 300 1.0 3.0 0.00 0.00 0.00 71 1010.4
20220706191554 83 279 1.0 3.0 0.00 0.00 0.00 71 1010.2
20220706190052 83 264 0.0 6.0 0.00 0.00 0.00 70 1010.4
20220706184550 83 150 1.0 5.0 0.00 0.00 0.00 69 1010.4
20220706183049 83 271 1.0 5.0 0.00 0.00 0.00 72 1010.7
20220706181549 82 328 0.0 3.0 0.00 0.00 0.00 73 1010.6
20220706180100 82 322 1.0 7.0 0.00 0.00 0.00 72 1010.7
20220706174549 82 300 2.0 6.0 0.00 0.00 0.00 73 1010.6
20220706173046 81 317 1.0 3.0 0.00 0.00 0.00 75 1010.6
20220706171544 81 17 2.0 5.0 0.00 0.00 0.00 72 1010.4
20220706170044 81 280 1.0 4.0 0.00 0.00 0.00 73 1010.4
20220706164543 81 297 1.0 7.0 0.00 0.00 0.00 72 1010.4
20220706163041 82 343 0.0 5.0 0.00 0.00 0.00 71 1010.2
20220706161540 83 310 1.0 6.0 0.00 0.00 0.00 70 1009.8
20220706160040 82 322 1.0 7.0 0.00 0.00 0.00 71 1010.0